< < Back
Terminal Aerodrome Forecast


Current Version              Previous Versions:   1  2  3  4  5  6  7  8  9  

Terminal Aerodrome Forecast

003
FTUS44 KBMX 251138
TAFTCL
TAF
KTCL 251138Z 2512/2612 13009KT P6SM VCSH FEW020 BKN060
      TEMPO 2512/2514 BKN020
     FM251400 15006KT 5SM SHRA VCTS SCT020 BKN040CB
     FM252200 13007KT P6SM SCT015 BKN050=



Latest METAR

342
SAUS70 KWBC 260300 RRL
MTRTCL
METAR KTCL 260253Z AUTO 10004KT 10SM FEW013 21/19 A3013 RMK AO2 SLP199
T02110194 53009


USA.gov is the U.S. government's official web portal to all federal, state and local government web resources and services.